createdAt,value
2022-08-17T00:01:27.309Z,21.70
2022-08-17T00:05:31.581Z,21.60
2022-08-17T00:09:32.986Z,21.40
2022-08-17T00:13:40.723Z,21.30
2022-08-17T00:17:42.242Z,21.60
2022-08-17T00:21:56.312Z,21.50
2022-08-17T00:25:49.385Z,21.40
2022-08-17T00:29:51.291Z,20.40
2022-08-17T00:33:52.591Z,21.00
2022-08-17T00:37:54.773Z,20.70
2022-08-17T00:41:56.145Z,21.30
2022-08-17T00:46:02.851Z,21.40
2022-08-17T00:50:06.267Z,21.40
2022-08-17T00:54:13.343Z,21.30
2022-08-17T00:58:14.532Z,21.40
2022-08-17T01:02:18.031Z,21.50
2022-08-17T01:06:20.852Z,21.30
2022-08-17T01:10:58.348Z,21.40
2022-08-17T01:14:33.633Z,21.40
2022-08-17T01:18:35.043Z,21.20
2022-08-17T01:22:36.327Z,21.20
2022-08-17T01:26:39.752Z,21.10
2022-08-17T01:30:56.978Z,21.20
2022-08-17T01:34:50.133Z,21.10
2022-08-17T01:38:48.615Z,21.10
2022-08-17T01:42:53.522Z,21.10
2022-08-17T01:46:54.516Z,21.20
2022-08-17T01:50:55.627Z,20.90
2022-08-17T01:54:57.019Z,21.20
2022-08-17T01:58:58.131Z,21.30
2022-08-17T02:02:59.112Z,21.30
2022-08-17T02:07:00.101Z,21.20
2022-08-17T02:11:05.234Z,21.10
2022-08-17T02:15:11.695Z,21.10
2022-08-17T02:19:15.401Z,21.00
2022-08-17T02:23:16.966Z,21.00
2022-08-17T02:27:18.441Z,20.90
2022-08-17T02:31:20.547Z,21.00
2022-08-17T02:35:22.281Z,21.00
2022-08-17T02:39:23.163Z,21.00
2022-08-17T02:43:26.386Z,20.90
2022-08-17T02:47:27.485Z,20.90
2022-08-17T02:51:28.683Z,20.70
2022-08-17T02:55:33.611Z,20.80
2022-08-17T02:59:34.812Z,20.70
2022-08-17T03:03:37.618Z,20.30
2022-08-17T03:07:38.710Z,20.20
2022-08-17T03:11:39.865Z,20.80
2022-08-17T03:15:44.521Z,20.90
2022-08-17T03:19:45.617Z,21.00
2022-08-17T03:23:46.626Z,20.90
2022-08-17T03:27:50.274Z,20.80
2022-08-17T03:31:52.746Z,20.60
2022-08-17T03:35:53.844Z,20.40
2022-08-17T03:39:55.014Z,20.20
2022-08-17T03:43:56.149Z,20.20
2022-08-17T03:48:15.338Z,20.30
2022-08-17T03:52:34.696Z,19.90
2022-08-17T03:56:44.944Z,19.80
2022-08-17T04:00:46.352Z,20.70
2022-08-17T04:04:49.436Z,20.70
2022-08-17T04:08:50.424Z,20.80
2022-08-17T04:12:55.537Z,20.70
2022-08-17T04:16:56.558Z,20.80
2022-08-17T04:20:57.731Z,20.60
2022-08-17T04:25:02.726Z,19.80
2022-08-17T04:29:03.817Z,20.40
2022-08-17T04:33:08.045Z,21.20
2022-08-17T04:37:09.051Z,21.30
2022-08-17T04:41:29.537Z,21.30
2022-08-17T04:45:32.400Z,21.40
2022-08-17T04:49:34.448Z,21.50
2022-08-17T04:53:35.557Z,21.30
2022-08-17T04:57:39.405Z,21.50
2022-08-17T05:01:41.323Z,21.70
2022-08-17T05:05:49.006Z,21.90
2022-08-17T05:09:49.977Z,22.00
2022-08-17T05:13:51.773Z,21.90
2022-08-17T05:17:52.993Z,22.10
2022-08-17T05:21:53.983Z,22.10
2022-08-17T05:25:56.002Z,22.30
2022-08-17T05:29:56.886Z,22.60
2022-08-17T05:33:58.139Z,22.80
2022-08-17T05:38:00.236Z,23.00
2022-08-17T05:42:02.034Z,23.50
2022-08-17T05:46:09.576Z,23.70
2022-08-17T05:50:14.332Z,24.40
2022-08-17T05:54:33.094Z,24.90
2022-08-17T05:58:46.991Z,25.50
2022-08-17T06:03:14.464Z,25.90
2022-08-17T06:07:22.007Z,26.90
2022-08-17T06:11:32.981Z,27.00
2022-08-17T06:15:46.827Z,26.80
2022-08-17T06:19:55.188Z,26.20
2022-08-17T06:24:16.610Z,26.10
2022-08-17T06:28:21.599Z,26.40
2022-08-17T06:32:23.926Z,25.80
2022-08-17T06:36:53.262Z,23.20
2022-08-17T06:41:11.859Z,25.40
2022-08-17T06:45:31.305Z,26.60
2022-08-17T06:49:36.207Z,27.00
2022-08-17T06:53:46.900Z,28.20
2022-08-17T06:57:53.489Z,28.90
2022-08-17T07:01:55.762Z,28.60
2022-08-17T07:06:00.672Z,29.50
2022-08-17T07:10:01.867Z,29.50
2022-08-17T07:14:06.783Z,29.90
2022-08-17T07:18:09.049Z,29.80
2022-08-17T07:22:57.480Z,28.80
2022-08-17T07:26:38.344Z,29.30
2022-08-17T07:30:44.626Z,27.40
2022-08-17T07:35:02.623Z,25.80
2022-08-17T07:39:04.044Z,27.60
2022-08-17T07:43:11.489Z,27.10
2022-08-17T07:47:34.518Z,26.20
2022-08-17T07:51:42.567Z,27.70
2022-08-17T07:55:44.767Z,28.20
2022-08-17T08:00:16.394Z,27.60
2022-08-17T08:04:59.164Z,28.30
2022-08-17T08:08:38.284Z,28.80
2022-08-17T08:12:42.152Z,28.30
2022-08-17T08:16:59.252Z,28.80
2022-08-17T08:21:29.538Z,28.00
2022-08-17T08:26:02.878Z,27.80
2022-08-17T08:30:07.933Z,27.00
2022-08-17T08:34:46.351Z,26.10
2022-08-17T08:38:23.179Z,25.50
2022-08-17T08:42:32.197Z,24.80
2022-08-17T08:46:57.147Z,24.50
2022-08-17T08:51:08.609Z,24.80
2022-08-17T08:55:51.120Z,24.90
2022-08-17T09:00:14.559Z,25.10
2022-08-17T09:05:02.779Z,25.30
2022-08-17T09:08:42.956Z,24.70
2022-08-17T09:12:59.216Z,24.80
2022-08-17T09:17:04.181Z,25.30
2022-08-17T09:21:14.879Z,26.00
2022-08-17T09:25:28.409Z,25.90
2022-08-17T09:29:33.357Z,26.20
2022-08-17T09:38:00.930Z,24.20
2022-08-17T09:42:25.430Z,23.80
2022-08-17T09:46:33.240Z,24.10
2022-08-17T09:51:04.500Z,24.00
2022-08-17T09:55:04.570Z,24.50
2022-08-17T09:59:16.536Z,24.70
2022-08-17T10:03:25.065Z,24.50
2022-08-17T10:07:40.227Z,25.10
2022-08-17T10:12:17.285Z,25.60
2022-08-17T10:16:37.611Z,25.90
2022-08-17T10:21:32.407Z,26.30
2022-08-17T10:25:56.329Z,26.60
2022-08-17T10:30:03.199Z,27.40
2022-08-17T10:34:23.046Z,27.40
2022-08-17T10:38:37.048Z,27.80
2022-08-17T10:43:05.951Z,27.90
2022-08-17T10:47:11.052Z,27.20
2022-08-17T10:51:37.459Z,28.00
2022-08-17T10:55:40.665Z,27.60
2022-08-17T10:59:46.889Z,27.50
2022-08-17T11:03:53.561Z,27.50
2022-08-17T11:08:18.160Z,26.80
2022-08-17T11:12:39.720Z,26.70
2022-08-17T11:17:06.049Z,26.20
2022-08-17T11:21:31.458Z,27.80
2022-08-17T11:25:44.343Z,28.00
2022-08-17T11:29:52.964Z,27.80
2022-08-17T11:34:01.827Z,27.60
2022-08-17T11:38:18.961Z,26.20
2022-08-17T11:42:33.981Z,27.50
2022-08-17T11:47:00.233Z,27.70
2022-08-17T11:51:28.243Z,28.60
2022-08-17T11:55:36.627Z,29.10
2022-08-17T11:59:45.454Z,29.20
2022-08-17T12:03:53.821Z,29.70
2022-08-17T12:08:11.867Z,30.30
2022-08-17T12:12:16.854Z,30.00
2022-08-17T12:16:22.178Z,30.90
2022-08-17T12:20:29.338Z,31.00
2022-08-17T12:24:44.233Z,31.30
2022-08-17T12:28:48.963Z,31.80
2022-08-17T12:32:50.378Z,33.00
2022-08-17T12:36:57.176Z,33.30
2022-08-17T12:40:59.214Z,32.90
2022-08-17T12:45:00.665Z,32.70
2022-08-17T12:49:13.047Z,32.30
2022-08-17T12:53:24.066Z,33.00
2022-08-17T12:57:32.734Z,34.20
2022-08-17T13:01:36.354Z,34.10
2022-08-17T13:05:41.248Z,31.80
2022-08-17T13:09:46.090Z,32.70
2022-08-17T13:13:50.697Z,32.30
2022-08-17T13:18:01.667Z,32.40
2022-08-17T13:22:08.078Z,33.40
2022-08-17T13:26:14.886Z,33.40
2022-08-17T13:30:25.246Z,33.70
2022-08-17T13:34:30.836Z,33.00
2022-08-17T13:38:40.572Z,33.60
2022-08-17T13:42:53.830Z,32.90
2022-08-17T13:46:56.992Z,32.80
2022-08-17T13:51:01.463Z,32.60
2022-08-17T13:55:06.293Z,31.20
2022-08-17T13:59:11.317Z,31.30
2022-08-17T14:03:15.004Z,32.00
2022-08-17T14:07:20.428Z,31.90
2022-08-17T14:11:22.951Z,32.30
2022-08-17T14:15:25.089Z,33.20
2022-08-17T14:19:28.030Z,33.30
2022-08-17T14:23:31.436Z,32.80
2022-08-17T14:27:33.563Z,32.00
2022-08-17T14:31:37.711Z,31.60
2022-08-17T14:35:39.146Z,31.80
2022-08-17T14:39:40.298Z,32.20
2022-08-17T14:43:41.674Z,32.40
2022-08-17T14:47:43.459Z,34.00
2022-08-17T14:51:44.972Z,33.30
2022-08-17T14:55:46.940Z,33.40
2022-08-17T14:59:54.866Z,33.00
2022-08-17T15:03:56.823Z,31.90
2022-08-17T15:08:00.239Z,32.90
2022-08-17T15:12:03.505Z,31.90
2022-08-17T15:16:04.921Z,32.60
2022-08-17T15:20:12.779Z,32.40
2022-08-17T15:24:12.590Z,31.50
2022-08-17T15:28:15.003Z,32.60
2022-08-17T15:32:28.122Z,31.50
2022-08-17T15:36:30.277Z,30.70
2022-08-17T15:40:32.129Z,30.90
2022-08-17T15:44:38.860Z,31.60
2022-08-17T15:48:42.183Z,31.50
2022-08-17T15:52:44.389Z,30.80
2022-08-17T15:56:45.818Z,30.50
2022-08-17T16:00:53.374Z,30.50
2022-08-17T16:04:51.698Z,30.00
2022-08-17T16:08:54.400Z,30.60
2022-08-17T16:12:55.749Z,30.90
2022-08-17T16:16:58.217Z,30.50
2022-08-17T16:21:20.031Z,30.10
2022-08-17T16:25:53.313Z,30.40
2022-08-17T16:29:32.342Z,30.20
2022-08-17T16:33:33.550Z,30.80
2022-08-17T16:37:36.016Z,30.70
2022-08-17T16:41:41.948Z,31.60
2022-08-17T16:45:43.267Z,30.80
2022-08-17T16:49:47.209Z,31.10
2022-08-17T16:53:48.656Z,31.00
2022-08-17T16:57:51.882Z,30.40
2022-08-17T17:01:53.130Z,30.40
2022-08-17T17:06:12.068Z,30.90
2022-08-17T17:10:17.221Z,31.30
2022-08-17T17:14:31.199Z,31.00
2022-08-17T17:18:42.544Z,31.00
2022-08-17T17:22:47.614Z,31.00
2022-08-17T17:26:53.476Z,31.00
2022-08-17T17:31:02.336Z,31.20
2022-08-17T17:35:10.365Z,30.70
2022-08-17T17:39:14.861Z,30.50
2022-08-17T17:43:37.781Z,30.50
2022-08-17T17:47:22.519Z,30.40
2022-08-17T17:52:02.854Z,30.60
2022-08-17T17:55:53.879Z,30.90
2022-08-17T17:59:58.729Z,30.60
2022-08-17T18:04:21.916Z,30.10
2022-08-17T18:08:35.943Z,30.80
2022-08-17T18:12:47.677Z,30.90
2022-08-17T18:16:55.890Z,30.90
2022-08-17T18:21:06.252Z,30.40
2022-08-17T18:25:11.219Z,29.80
2022-08-17T18:29:22.181Z,29.80
2022-08-17T18:33:26.202Z,30.20
2022-08-17T18:37:47.724Z,30.10
2022-08-17T18:41:52.428Z,29.40
2022-08-17T18:45:56.596Z,29.20
2022-08-17T18:50:01.848Z,29.70
2022-08-17T18:54:19.262Z,29.70
2022-08-17T18:58:24.106Z,29.00
2022-08-17T19:02:43.353Z,29.40
2022-08-17T19:06:31.966Z,29.20
2022-08-17T19:10:46.404Z,28.90
2022-08-17T19:14:40.100Z,29.10
2022-08-17T19:18:51.333Z,27.20
2022-08-17T19:23:08.569Z,27.50
2022-08-17T19:27:22.606Z,28.10
2022-08-17T19:31:30.139Z,28.40
2022-08-17T19:35:35.494Z,28.50
2022-08-17T19:39:50.034Z,28.40
2022-08-17T19:44:15.193Z,28.40
2022-08-17T19:48:25.689Z,27.80
2022-08-17T19:52:45.867Z,27.00
2022-08-17T19:57:19.713Z,27.80
2022-08-17T20:01:34.920Z,27.80
2022-08-17T20:06:11.600Z,27.20
2022-08-17T20:10:09.683Z,27.40
2022-08-17T20:14:17.712Z,25.20
2022-08-17T20:18:22.594Z,25.00
2022-08-17T20:22:29.974Z,26.10
2022-08-17T20:26:58.681Z,27.30
2022-08-17T20:31:01.922Z,25.40
2022-08-17T20:35:09.928Z,25.90
2022-08-17T20:39:14.763Z,26.40
2022-08-17T20:43:31.249Z,25.00
2022-08-17T20:47:36.089Z,26.20
2022-08-17T20:52:01.324Z,26.40
2022-08-17T20:55:58.471Z,26.30
2022-08-17T21:00:16.443Z,26.30
2022-08-17T21:04:44.287Z,25.90
2022-08-17T21:08:57.096Z,25.80
2022-08-17T21:13:07.556Z,25.40
2022-08-17T21:17:44.587Z,25.60
2022-08-17T21:22:07.755Z,25.60
2022-08-17T21:26:30.248Z,25.30
2022-08-17T21:30:31.408Z,25.10
2022-08-17T21:34:41.431Z,25.50
2022-08-17T21:38:57.000Z,25.40
2022-08-17T21:42:58.842Z,25.30
2022-08-17T21:47:21.255Z,25.10
2022-08-17T21:51:25.581Z,24.50
2022-08-17T21:55:29.869Z,24.70
2022-08-17T21:59:37.531Z,25.10
2022-08-17T22:03:39.256Z,25.00
2022-08-17T22:07:47.088Z,25.00
2022-08-17T22:12:12.946Z,24.20
2022-08-17T22:16:29.313Z,23.70
2022-08-17T22:20:21.824Z,24.10
2022-08-17T22:24:24.224Z,24.80
2022-08-17T22:28:38.067Z,24.50
2022-08-17T22:32:43.996Z,24.70
2022-08-17T22:36:45.297Z,24.50
2022-08-17T22:40:52.152Z,24.50
2022-08-17T22:44:53.953Z,24.70
2022-08-17T22:48:58.767Z,24.80
2022-08-17T22:53:34.202Z,24.20
2022-08-17T22:57:54.253Z,24.40
2022-08-17T23:02:22.036Z,24.20
2022-08-17T23:06:23.853Z,24.10
2022-08-17T23:10:27.110Z,23.70
2022-08-17T23:14:31.242Z,23.60
2022-08-17T23:18:32.340Z,23.50
2022-08-17T23:22:35.092Z,24.20
2022-08-17T23:26:38.130Z,24.70
2022-08-17T23:30:42.418Z,24.60
2022-08-17T23:34:46.293Z,24.10
2022-08-17T23:38:47.227Z,24.00
2022-08-17T23:42:50.880Z,24.30
2022-08-17T23:46:53.282Z,23.90
2022-08-17T23:50:55.811Z,24.40
2022-08-17T23:54:56.942Z,24.40
2022-08-17T23:58:57.930Z,24.80
